Hauptseite
METAR-TAF:

METAR-TAF

Flughäfen :

Flughafen Le Havre

Le Havre, Frankreich

Breite: 49-31N, Länge: 000-04E, Höhe: 100 m

Beobachtung

Neuester Wetterbericht von vor 26 Minuten, um 03:30 UTC
Wind 9 kt aus Nordwest
Temperatur 12°C
Luftfeuchtigkeit 88%
Luftdruck 1006 hPa
Sichtweite 10 km oder mehr

METAR: LFOH 070330Z AUTO 32009KT 9999 BKN013/// BKN018/// BKN027/// ///TCU 12/10 Q1006

Zeit: 05:56 (03:56 UTC)


TAF: fehlend

Wetterbeobachtungen und Prognosen von mehr als 4000 Flughäfen (METAR und TAF Bericht).

Die verfügbaren Stationen werden durch gelbe und rote Markierungen auf der Karte dargestellt.

Führen Sie die Maus auf sie, um den Namen der Station zu sehen.

Darauf klicken, um die Beobachtung von Wetterbeobachtungen und Prognosen zu sehen.

Um die Karte zu ändern : klicken Sie auf den grünen Tasten mit einem schwarzen Kreuz Zum Vergrößern, auf den grünen Button mit einem Gedankenstrich zu verkleinern, oder auf die grünen Pfeile für benachbarte Karten.


METAR-TAF: